.
WxDataArchive / Data Records for 2010-12-22
2010-12-21 December 2010 2010-12-23

Data Records for Wednesday, 22 December 2010

Time	Temp	Chill	HIndex	Humid	Dewpt	 Wind 	HiWind	WindDir	Rain 	Barom 
-----	----	-----	------	-----	-----	------	------	-------	-----	----- 
00:00	28.4	28.4	28.4	85	24.5	2	3	135	0.00	30.049 
00:05	28.4	28.4	28.4	85	24.5	1	5	90	0.00	30.049 
00:10	28.4	28.4	28.4	85	24.5	1	4	90	0.00	30.049 
00:15	28.4	28.4	28.4	85	24.5	0	3	90	0.00	30.052 
00:20	28.4	28.4	28.4	85	24.5	0	3	90	0.00	30.052 
00:25	28.4	28.4	28.4	85	24.5	1	4	90	0.00	30.052 
00:30	28.2	28.2	28.2	86	24.6	0	2	90	0.00	30.046 
00:35	28.2	28.2	28.2	86	24.6	0	1	90	0.00	30.046 
00:40	28.2	28.2	28.2	86	24.6	1	3	90	0.00	30.046 
00:45	28.2	28.2	28.2	87	24.8	0	2	90	0.00	30.047 
00:50	28.1	28.1	28.1	87	24.7	1	4	90	0.00	30.047 
00:55	28.1	28.1	28.1	87	24.7	1	3	90	0.00	30.047 
01:00	27.9	27.9	27.9	88	24.8	1	2	90	0.00	30.048 
01:05	27.9	27.9	27.9	88	24.8	1	3	90	0.00	30.048 
01:10	27.9	27.9	27.9	88	24.8	1	3	90	0.00	30.048 
01:15	27.8	27.8	27.8	89	25.0	2	3	90	0.00	30.038 
01:20	27.8	27.8	27.8	89	25.0	1	5	90	0.00	30.038 
01:25	27.8	27.8	27.8	90	25.3	1	3	90	0.00	30.038 
01:30	27.6	27.6	27.6	90	25.1	1	3	90	0.00	30.031 
01:35	27.6	27.6	27.6	91	25.3	1	4	90	0.00	30.031 
01:40	27.6	27.6	27.6	91	25.3	1	5	90	0.00	30.031 
01:45	27.6	27.6	27.6	91	25.3	1	3	90	0.00	30.030 
01:50	27.6	27.6	27.6	91	25.3	1	2	90	0.00	30.030 
01:55	27.5	27.5	27.5	91	25.2	1	3	90	0.00	30.030 
02:00	27.5	27.5	27.5	92	25.5	0	3	90	0.00	30.023 
02:05	27.5	27.5	27.5	92	25.5	1	3	90	0.00	30.023 
02:10	27.5	27.5	27.5	92	25.5	0	2	90	0.00	30.023 
02:15	27.5	27.5	27.5	92	25.5	0	2	90	0.00	30.029 
02:20	27.5	27.5	27.5	92	25.5	0	1	90	0.00	30.029 
02:25	27.6	27.6	27.6	92	25.6	0	2	90	0.00	30.029 
02:30	27.6	27.6	27.6	92	25.6	0	2	90	0.00	30.032 
02:35	27.6	27.6	27.6	92	25.6	0	2	90	0.00	30.032 
02:40	27.6	27.6	27.6	92	25.6	0	2	90	0.00	30.032 
02:45	27.6	27.6	27.6	92	25.6	0	1	90	0.00	30.032 
02:50	27.6	27.6	27.6	92	25.6	0	3	90	0.00	30.032 
02:55	27.6	27.6	27.6	92	25.6	1	3	90	0.00	30.032 
03:00	27.6	27.6	27.6	93	25.8	0	2	90	0.00	30.031 
03:05	27.6	27.6	27.6	93	25.8	1	3	90	0.00	30.031 
03:10	27.6	27.6	27.6	93	25.8	1	2	90	0.00	30.031 
03:15	27.6	27.6	27.6	93	25.8	0	2	90	0.00	30.031 
03:20	27.6	27.6	27.6	93	25.8	1	3	90	0.00	30.031 
03:25	27.6	27.6	27.6	93	25.8	1	4	90	0.00	30.031 
03:30	27.6	27.6	27.6	93	25.8	1	3	90	0.00	30.030 
03:35	27.6	27.6	27.6	93	25.8	1	4	90	0.00	30.030 
03:40	27.8	27.8	27.8	93	26.0	1	4	90	0.00	30.030 
03:45	27.8	27.8	27.8	93	26.0	1	4	68	0.00	30.020 
03:50	27.8	27.8	27.8	93	26.0	1	3	112	0.00	30.020 
03:55	27.8	27.8	27.8	93	26.0	1	3	68	0.00	30.020 
04:00	27.8	27.8	27.8	93	26.0	1	3	90	0.00	30.015 
04:05	27.8	27.8	27.8	93	26.0	0	2	90	0.00	30.015 
04:10	27.8	27.8	27.8	94	26.3	0	2	90	0.00	30.015 
04:15	27.9	27.9	27.9	94	26.4	0	2	90	0.00	30.025 
04:20	27.9	27.9	27.9	94	26.4	1	3	90	0.00	30.025 
04:25	27.9	27.9	27.9	94	26.4	0	3	90	0.00	30.025 
04:30	27.9	27.9	27.9	94	26.4	1	3	90	0.00	30.016 
04:35	27.8	27.8	27.8	94	26.3	1	2	90	0.00	30.016 
04:40	27.8	27.8	27.8	94	26.3	1	2	90	0.00	30.016 
04:45	27.8	27.8	27.8	94	26.3	1	3	90	0.00	30.010 
04:50	27.9	27.9	27.9	94	26.4	0	1	90	0.00	30.010 
04:55	27.9	27.9	27.9	94	26.4	0	2	90	0.00	30.010 
05:00	27.9	27.9	27.9	94	26.4	0	2	90	0.00	30.014 
05:05	27.9	27.9	27.9	94	26.4	0	2	90	0.00	30.014 
05:10	27.8	27.8	27.8	94	26.3	0	2	90	0.00	30.014 
05:15	27.8	27.8	27.8	94	26.3	0	2	90	0.00	30.015 
05:20	27.9	27.9	27.9	94	26.4	1	2	90	0.00	30.015 
05:25	27.9	27.9	27.9	94	26.4	0	2	90	0.00	30.015 
05:30	27.9	27.9	27.9	94	26.4	0	2	90	0.00	30.013 
05:35	27.9	27.9	27.9	94	26.4	0	2	90	0.00	30.013 
05:40	27.9	27.9	27.9	94	26.4	0	2	90	0.00	30.013 
05:45	27.9	27.9	27.9	94	26.4	0	2	90	0.00	30.013 
05:50	27.9	27.9	27.9	94	26.4	0	1	90	0.00	30.013 
05:55	27.9	27.9	27.9	94	26.4	0	1	90	0.00	30.013 
06:00	27.9	27.9	27.9	94	26.4	0	0	---	0.00	30.015 
06:05	27.9	27.9	27.9	94	26.4	0	1	90	0.00	30.015 
06:10	27.9	27.9	27.9	94	26.4	0	1	90	0.00	30.015 
06:15	27.9	27.9	27.9	94	26.4	0	1	90	0.00	30.022 
06:20	27.9	27.9	27.9	94	26.4	0	0	---	0.00	30.022 
06:25	27.9	27.9	27.9	94	26.4	0	0	---	0.00	30.022 
06:30	28.1	28.1	28.1	94	26.6	0	0	---	0.00	30.030 
06:35	28.1	28.1	28.1	94	26.6	0	0	---	0.00	30.030 
06:40	28.1	28.1	28.1	94	26.6	0	0	---	0.00	30.030 
06:45	28.1	28.1	28.1	94	26.6	0	0	---	0.00	30.036 
06:50	28.1	28.1	28.1	94	26.6	0	0	---	0.00	30.036 
06:55	28.1	28.1	28.1	94	26.6	0	0	---	0.00	30.036 
07:00	28.1	28.1	28.1	94	26.6	0	0	---	0.00	30.044 
07:05	28.1	28.1	28.1	94	26.6	0	0	---	0.00	30.044 
07:10	28.1	28.1	28.1	94	26.6	0	0	---	0.00	30.044 
07:15	28.1	28.1	28.1	94	26.6	0	0	---	0.00	30.046 
07:20	28.1	28.1	28.1	94	26.6	0	0	---	0.00	30.046 
07:25	28.1	28.1	28.1	94	26.6	0	0	---	0.00	30.046 
07:30	28.1	28.1	28.1	94	26.6	0	0	---	0.00	30.047 
07:35	28.1	28.1	28.1	94	26.6	0	0	---	0.00	30.047 
07:40	28.1	28.1	28.1	94	26.6	0	0	---	0.00	30.047 
07:45	28.1	28.1	28.1	94	26.6	0	0	---	0.00	30.051 
07:50	28.1	28.1	28.1	94	26.6	0	0	---	0.00	30.051 
07:55	28.1	28.1	28.1	94	26.6	0	0	---	0.00	30.051 
08:00	28.1	28.1	28.1	94	26.6	0	1	90	0.00	30.062 
08:05	28.1	28.1	28.1	94	26.6	0	0	---	0.00	30.062 
08:10	28.1	28.1	28.1	94	26.6	0	0	---	0.00	30.062 
08:15	28.1	28.1	28.1	94	26.6	0	0	---	0.00	30.066 
08:20	28.1	28.1	28.1	94	26.6	0	0	---	0.00	30.066 
08:25	28.1	28.1	28.1	94	26.6	0	1	90	0.00	30.066 
08:30	28.1	28.1	28.1	94	26.6	0	1	90	0.00	30.078 
08:35	28.1	28.1	28.1	94	26.6	0	1	90	0.00	30.078 
08:40	28.1	28.1	28.1	94	26.6	0	2	90	0.00	30.078 
08:45	28.1	28.1	28.1	94	26.6	0	2	90	0.00	30.079 
08:50	28.1	28.1	28.1	94	26.6	0	1	90	0.00	30.079 
08:55	28.1	28.1	28.1	94	26.6	0	2	90	0.00	30.079 
09:00	28.1	28.1	28.1	94	26.6	0	2	90	0.00	30.085 
09:05	28.1	28.1	28.1	94	26.6	0	2	90	0.00	30.085 
09:10	27.9	27.9	27.9	94	26.4	0	2	90	0.00	30.085 
09:15	27.9	27.9	27.9	94	26.4	0	3	90	0.00	30.097 
09:20	27.9	27.9	27.9	94	26.4	0	2	68	0.00	30.097 
09:25	27.9	27.9	27.9	94	26.4	0	2	68	0.00	30.097 
09:30	27.9	27.9	27.9	94	26.4	0	2	68	0.00	30.106 
09:35	27.9	27.9	27.9	94	26.4	0	2	45	0.00	30.106 
09:40	27.9	27.9	27.9	94	26.4	0	4	90	0.00	30.106 
09:45	28.1	28.1	28.1	94	26.6	0	2	90	0.00	30.110 
09:50	28.2	28.2	28.2	94	26.7	0	1	90	0.00	30.110 
09:55	28.4	28.4	28.4	94	26.9	0	0	---	0.00	30.110 
10:00	28.5	28.5	28.5	94	27.0	0	2	90	0.00	30.120 
10:05	28.5	28.5	28.5	94	27.0	0	1	90	0.00	30.120 
10:10	28.5	28.5	28.5	94	27.0	0	1	90	0.00	30.120 
10:15	28.7	28.7	28.7	94	27.2	0	2	90	0.00	30.125 
10:20	28.7	28.7	28.7	94	27.2	0	1	90	0.00	30.125 
10:25	28.5	28.5	28.5	93	26.7	1	4	45	0.00	30.125 
10:30	28.5	28.5	28.5	93	26.7	1	3	45	0.00	30.139 
10:35	28.5	28.5	28.5	93	26.7	1	4	135	0.00	30.139 
10:40	28.4	28.4	28.4	93	26.6	1	4	68	0.00	30.139 
10:45	28.2	28.2	28.2	93	26.4	1	5	68	0.00	30.155 
10:50	28.2	28.2	28.2	93	26.4	0	3	45	0.00	30.155 
10:55	28.2	28.2	28.2	92	26.2	1	3	68	0.00	30.155 
11:00	28.2	28.2	28.2	92	26.2	1	3	135	0.00	30.168 
11:05	28.1	28.1	28.1	92	26.1	1	3	22	0.00	30.168 
11:10	28.1	28.1	28.1	92	26.1	0	3	292	0.00	30.168 
11:15	28.2	28.2	28.2	92	26.2	0	2	90	0.00	30.171 
11:20	28.2	28.2	28.2	91	25.9	1	4	90	0.00	30.171 
11:25	28.2	28.2	28.2	91	25.9	1	3	22	0.00	30.171 
11:30	28.4	28.4	28.4	90	25.8	0	1	45	0.00	30.173 
11:35	28.5	28.5	28.5	90	25.9	1	5	90	0.00	30.173 
11:40	28.7	28.7	28.7	90	26.1	1	4	90	0.00	30.173 
11:45	28.8	28.8	28.8	89	26.0	1	2	90	0.00	30.173 
11:50	29.0	29.0	29.0	88	25.9	0	2	68	0.00	30.173 
11:55	29.1	29.1	29.1	88	26.0	0	2	68	0.00	30.173 
12:00	29.4	29.4	29.4	88	26.3	0	3	45	0.00	30.172 
12:05	29.5	29.5	29.5	87	26.1	0	1	45	0.00	30.172 
12:10	29.7	29.7	29.7	86	26.0	0	1	45	0.00	30.172 
12:15	29.8	29.8	29.8	85	25.9	0	2	45	0.00	30.172 
12:20	29.8	29.8	29.8	85	25.9	0	0	---	0.00	30.172 
12:25	29.8	29.8	29.8	84	25.6	0	1	45	0.00	30.172 
12:30	29.8	29.8	29.8	84	25.6	0	1	45	0.00	30.171 
12:35	29.8	29.8	29.8	84	25.6	0	1	45	0.00	30.171 
12:40	30.0	30.0	30.0	83	25.5	0	3	45	0.00	30.171 
12:45	30.1	30.1	30.1	83	25.6	0	2	45	0.00	30.172 
12:50	30.3	30.3	30.3	82	25.5	0	1	0	0.00	30.172 
12:55	30.6	30.6	30.6	82	25.8	0	2	270	0.00	30.172 
13:00	30.6	30.6	30.6	81	25.5	0	1	270	0.00	30.183 
13:05	30.6	30.6	30.6	80	25.2	1	2	270	0.00	30.183 
13:10	30.7	30.7	30.7	80	25.3	0	2	248	0.00	30.183 
13:15	31.2	31.2	31.2	79	25.5	0	2	338	0.00	30.180 
13:20	31.3	31.3	31.3	77	24.9	1	3	0	0.00	30.180 
13:25	31.2	31.2	31.2	76	24.5	1	5	135	0.01	30.180 
13:30	31.2	31.2	31.2	75	24.2	1	4	22	0.00	30.186 
13:35	31.2	31.2	31.2	75	24.2	1	3	0	0.00	30.186 
13:40	31.3	31.3	31.3	74	24.0	1	4	338	0.00	30.186 
13:45	31.3	31.3	31.3	74	24.0	1	5	315	0.00	30.185 
13:50	31.5	31.5	31.5	74	24.2	0	2	292	0.00	30.185 
13:55	31.6	31.6	31.6	73	24.0	1	3	292	0.00	30.185 
14:00	31.5	31.5	31.5	73	23.9	0	2	22	0.00	30.184 
14:05	31.6	31.6	31.6	73	24.0	1	3	22	0.00	30.184 
14:10	31.8	31.8	31.8	72	23.8	1	3	292	0.01	30.184 
14:15	31.8	31.8	31.8	71	23.5	1	3	22	0.00	30.194 
14:20	31.8	31.8	31.8	71	23.5	1	4	45	0.00	30.194 
14:25	31.8	31.8	31.8	71	23.5	1	6	22	0.00	30.194 
14:30	31.5	31.5	31.5	71	23.2	1	6	0	0.00	30.201 
14:35	31.3	31.3	31.3	71	23.0	1	3	338	0.00	30.201 
14:40	31.5	31.5	31.5	71	23.2	1	5	315	0.00	30.201 
14:45	31.5	31.5	31.5	71	23.2	1	3	22	0.00	30.210 
14:50	31.6	31.6	31.6	71	23.3	1	5	338	0.00	30.210 
14:55	31.5	31.5	31.5	70	22.9	1	5	315	0.00	30.210 
15:00	31.2	31.2	31.2	70	22.6	1	4	338	0.00	30.220 
15:05	31.2	31.2	31.2	70	22.6	1	5	22	0.00	30.220 
15:10	31.3	31.3	31.3	70	22.7	0	3	22	0.00	30.220 
15:15	31.3	31.3	31.3	70	22.7	1	3	45	0.00	30.231 
15:20	31.5	31.5	31.5	70	22.9	1	3	338	0.00	30.231 
15:25	31.3	31.3	31.3	70	22.7	1	4	0	0.00	30.231 
15:30	31.3	31.3	31.3	70	22.7	1	2	0	0.00	30.237 
15:35	31.5	31.5	31.5	70	22.9	1	2	338	0.00	30.237 
15:40	31.5	31.5	31.5	71	23.2	1	3	338	0.00	30.237 
15:45	31.6	31.6	31.6	70	23.0	1	4	270	0.00	30.241 
15:50	31.6	31.6	31.6	70	23.0	0	2	0	0.01	30.241 
15:55	31.8	31.8	31.8	70	23.2	0	3	0	0.00	30.241 
16:00	31.8	31.8	31.8	70	23.2	1	2	248	0.00	30.249 
16:05	31.8	31.8	31.8	70	23.2	0	2	248	0.00	30.249 
16:10	31.8	31.8	31.8	70	23.2	0	3	248	0.00	30.249 
16:15	31.6	31.6	31.6	69	22.6	1	6	270	0.00	30.253 
16:20	31.5	31.5	31.5	69	22.5	1	4	338	0.00	30.253 
16:25	31.5	31.5	31.5	69	22.5	1	4	338	0.00	30.253 
16:30	31.5	31.5	31.5	69	22.5	1	3	338	0.00	30.263 
16:35	31.3	31.3	31.3	69	22.3	1	5	315	0.00	30.263 
16:40	31.2	31.2	31.2	69	22.2	1	4	45	0.00	30.263 
16:45	30.9	30.9	30.9	69	21.9	1	2	0	0.00	30.267 
16:50	30.7	30.7	30.7	69	21.8	1	4	315	0.00	30.267 
16:55	30.4	30.4	30.4	69	21.5	1	2	315	0.00	30.267 
17:00	30.1	30.1	30.1	69	21.2	0	1	315	0.00	30.281 
17:05	30.0	30.0	30.0	70	21.4	0	3	315	0.00	30.281 
17:10	29.8	29.8	29.8	70	21.2	1	4	292	0.00	30.281 
17:15	29.7	29.7	29.7	71	21.5	1	3	292	0.00	30.287 
17:20	29.7	29.7	29.7	71	21.5	0	4	270	0.00	30.287 
17:25	29.5	29.5	29.5	72	21.6	0	2	270	0.00	30.287 
17:30	29.3	29.3	29.3	72	21.4	0	1	270	0.00	30.297 
17:35	29.1	29.1	29.1	72	21.2	0	2	270	0.00	30.297 
17:40	29.0	29.0	29.0	73	21.4	0	1	270	0.00	30.297 
17:45	29.0	29.0	29.0	73	21.4	0	2	270	0.00	30.301 
17:50	29.0	29.0	29.0	73	21.4	0	2	270	0.00	30.301 
17:55	28.7	28.7	28.7	73	21.2	0	3	270	0.00	30.301 
18:00	28.7	28.7	28.7	74	21.5	0	2	338	0.00	30.312 
18:05	28.5	28.5	28.5	74	21.3	0	2	338	0.00	30.312 
18:10	28.4	28.4	28.4	74	21.2	0	1	338	0.00	30.312 
18:15	28.2	28.2	28.2	75	21.3	0	1	338	0.00	30.316 
18:20	28.1	28.1	28.1	75	21.2	0	1	338	0.00	30.316 
18:25	27.9	27.9	27.9	75	21.0	0	2	338	0.00	30.316 
18:30	27.8	27.8	27.8	75	20.9	0	1	338	0.00	30.323 
18:35	27.6	27.6	27.6	76	21.0	0	1	338	0.00	30.323 
18:40	27.5	27.5	27.5	76	20.9	0	1	338	0.00	30.323 
18:45	27.3	27.3	27.3	76	20.8	0	1	338	0.00	30.334 
18:50	27.3	27.3	27.3	77	21.1	0	1	338	0.00	30.334 
18:55	27.2	27.2	27.2	77	21.0	0	2	338	0.00	30.334 
19:00	27.2	27.2	27.2	77	21.0	0	2	338	0.00	30.344 
19:05	27.0	27.0	27.0	77	20.8	0	2	338	0.00	30.344 
19:10	26.9	26.9	26.9	77	20.7	0	1	338	0.00	30.344 
19:15	26.7	26.7	26.7	77	20.5	0	1	338	0.00	30.348 
19:20	26.6	26.6	26.6	78	20.7	0	1	338	0.00	30.348 
19:25	26.4	26.4	26.4	78	20.5	0	1	338	0.00	30.348 
19:30	26.3	26.3	26.3	78	20.4	0	1	338	0.00	30.348 
19:35	26.3	26.3	26.3	79	20.7	0	1	338	0.00	30.348 
19:40	26.3	26.3	26.3	79	20.7	0	1	338	0.00	30.348 
19:45	26.3	26.3	26.3	79	20.7	0	1	338	0.00	30.350 
19:50	26.1	26.1	26.1	79	20.5	0	1	338	0.00	30.350 
19:55	26.0	26.0	26.0	79	20.4	0	1	338	0.00	30.350 
20:00	25.8	25.8	25.8	79	20.2	0	1	338	0.00	30.357 
20:05	25.7	25.7	25.7	79	20.1	0	1	338	0.00	30.357 
20:10	25.4	25.4	25.4	79	19.8	0	1	338	0.00	30.357 
20:15	25.4	25.4	25.4	80	20.1	0	1	338	0.00	30.358 
20:20	25.3	25.3	25.3	80	20.0	0	1	338	0.00	30.358 
20:25	25.1	25.1	25.1	80	19.8	0	0	---	0.00	30.358 
20:30	25.0	25.0	25.0	81	20.0	0	2	338	0.00	30.351 
20:35	25.0	25.0	25.0	81	20.0	0	0	---	0.00	30.351 
20:40	24.8	24.8	24.8	81	19.8	0	0	---	0.00	30.351 
20:45	24.8	24.8	24.8	81	19.8	0	1	338	0.00	30.353 
20:50	24.7	24.7	24.7	81	19.7	0	1	338	0.00	30.353 
20:55	24.8	24.8	24.8	81	19.8	0	2	338	0.00	30.353 
21:00	24.8	24.8	24.8	81	19.8	0	1	338	0.00	30.353 
21:05	25.0	25.0	25.0	81	20.0	0	2	315	0.00	30.353 
21:10	25.0	25.0	25.0	81	20.0	0	1	315	0.00	30.353 
21:15	25.0	25.0	25.0	81	20.0	0	1	315	0.00	30.359 
21:20	25.0	25.0	25.0	80	19.7	0	0	---	0.00	30.359 
21:25	25.1	25.1	25.1	80	19.8	0	1	315	0.00	30.359 
21:30	25.0	25.0	25.0	80	19.7	0	1	315	0.00	30.363 
21:35	25.0	25.0	25.0	80	19.7	0	1	315	0.00	30.363 
21:40	25.0	25.0	25.0	79	19.4	0	1	315	0.00	30.363 
21:45	24.8	24.8	24.8	79	19.2	0	1	315	0.00	30.370 
21:50	24.7	24.7	24.7	79	19.1	0	1	315	0.00	30.370 
21:55	24.5	24.5	24.5	79	18.9	0	1	315	0.00	30.370 
22:00	24.4	24.4	24.4	79	18.8	0	1	315	0.00	30.371 
22:05	24.4	24.4	24.4	80	19.1	0	1	315	0.00	30.371 
22:10	24.2	24.2	24.2	80	18.9	0	1	315	0.00	30.371 
22:15	24.1	24.1	24.1	80	18.8	0	2	315	0.00	30.375 
22:20	23.9	23.9	23.9	80	18.6	0	1	315	0.00	30.375 
22:25	23.8	23.8	23.8	80	18.5	0	1	315	0.00	30.375 
22:30	23.8	23.8	23.8	81	18.8	0	1	315	0.00	30.381 
22:35	23.9	23.9	23.9	81	18.9	0	1	315	0.00	30.381 
22:40	23.9	23.9	23.9	81	18.9	0	0	---	0.00	30.381 
22:45	24.1	24.1	24.1	81	19.1	0	1	315	0.00	30.382 
22:50	24.2	24.2	24.2	81	19.2	0	1	315	0.00	30.382 
22:55	24.7	24.7	24.7	81	19.7	0	1	315	0.00	30.382 
23:00	25.0	25.0	25.0	81	20.0	0	1	315	0.00	30.389 
23:05	25.3	25.3	25.3	80	20.0	0	1	315	0.00	30.389 
23:10	25.6	25.6	25.6	79	20.0	0	2	315	0.00	30.389 
23:15	25.7	25.7	25.7	79	20.1	0	1	315	0.00	30.394 
23:20	25.8	25.8	25.8	79	20.2	0	2	315	0.00	30.394 
23:25	26.0	26.0	26.0	78	20.1	1	2	315	0.00	30.394 
23:30	26.1	26.1	26.1	78	20.2	1	2	315	0.00	30.399 
23:35	26.1	26.1	26.1	77	19.9	0	2	315	0.00	30.399 
23:40	26.3	26.3	26.3	77	20.1	0	2	315	0.00	30.399 
23:45	26.3	26.3	26.3	77	20.1	0	1	315	0.00	30.393 
23:50	26.3	26.3	26.3	77	20.1	0	0	---	0.00	30.393 
23:55	26.4	26.4	26.4	77	20.2	0	2	315	0.00	30.393 

CoCoRaHS
IN-AL-39
A2 Web Hosting
Creative Commons License
GoDaddy
search engine by freefind advanced

loaded 2018-11-16 23:30:00 • last modified 2010-11-18 10:43:29
Privacy PolicyDisclaimer
• wx.awcolley.com is powered by PmWiki v.2002016 •
• all content (unless otherwise noted) © 2018 A W Colley